createdAt,value
2019-01-31T00:00:35.515Z,13.30
2019-01-31T00:03:40.544Z,13.03
2019-01-31T00:06:48.638Z,12.37
2019-01-31T00:09:40.347Z,12.67
2019-01-31T00:12:44.914Z,13.33
2019-01-31T00:15:53.904Z,17.85
2019-01-31T00:18:55.771Z,13.83
2019-01-31T00:22:01.967Z,12.07
2019-01-31T00:24:39.821Z,11.83
2019-01-31T00:27:52.642Z,12.40
2019-01-31T00:30:35.974Z,12.00
2019-01-31T00:33:46.854Z,13.13
2019-01-31T00:36:40.617Z,12.53
2019-01-31T00:39:40.946Z,12.83
2019-01-31T00:42:33.218Z,13.03
2019-01-31T00:45:48.841Z,12.93
2019-01-31T00:48:39.901Z,12.83
2019-01-31T00:51:33.563Z,13.63
2019-01-31T00:54:20.286Z,17.57
2019-01-31T00:57:19.024Z,13.60
2019-01-31T01:00:26.459Z,13.70
2019-01-31T01:03:46.198Z,14.20
2019-01-31T01:06:25.558Z,16.37
2019-01-31T01:09:44.935Z,18.30
2019-01-31T01:12:51.228Z,20.20
2019-01-31T01:16:04.638Z,20.40
2019-01-31T01:18:42.338Z,22.37
2019-01-31T01:21:42.322Z,22.33
2019-01-31T01:24:33.586Z,22.87
2019-01-31T01:27:32.504Z,21.60
2019-01-31T01:30:49.462Z,30.73
2019-01-31T01:33:47.505Z,23.73
2019-01-31T01:36:40.842Z,24.10
2019-01-31T01:39:51.235Z,23.27
2019-01-31T01:42:43.833Z,22.57
2019-01-31T01:45:59.420Z,24.03
2019-01-31T01:48:40.716Z,24.73
2019-01-31T01:51:34.495Z,33.25
2019-01-31T01:54:48.325Z,31.65
2019-01-31T01:58:00.679Z,24.03
2019-01-31T02:01:23.397Z,23.27
2019-01-31T02:04:22.892Z,23.17
2019-01-31T02:07:23.465Z,23.13
2019-01-31T02:10:55.669Z,22.63
2019-01-31T02:13:51.573Z,22.20
2019-01-31T02:16:44.391Z,22.40
2019-01-31T02:19:58.045Z,22.63
2019-01-31T02:22:46.280Z,24.03
2019-01-31T02:25:25.900Z,23.73
2019-01-31T02:28:38.255Z,23.93
2019-01-31T02:31:41.323Z,24.47
2019-01-31T02:34:57.214Z,24.27
2019-01-31T02:37:58.397Z,31.40
2019-01-31T02:40:45.295Z,32.03
2019-01-31T02:43:43.025Z,26.83
2019-01-31T02:47:07.832Z,25.90
2019-01-31T02:50:26.673Z,26.53
2019-01-31T02:53:21.425Z,25.70
2019-01-31T02:56:14.261Z,26.37
2019-01-31T02:59:04.460Z,27.03
2019-01-31T03:02:10.900Z,27.30
2019-01-31T03:05:10.830Z,29.30
2019-01-31T03:08:26.703Z,40.23
2019-01-31T03:11:17.845Z,40.70
2019-01-31T03:14:14.294Z,32.33
2019-01-31T03:17:15.671Z,31.70
2019-01-31T03:20:24.062Z,31.93
2019-01-31T03:23:29.257Z,31.33
2019-01-31T03:26:36.153Z,33.33
2019-01-31T03:29:59.965Z,35.07
2019-01-31T03:32:46.041Z,52.05
2019-01-31T03:36:05.739Z,39.83
2019-01-31T03:38:52.772Z,37.97
2019-01-31T03:42:03.220Z,38.70
2019-01-31T03:45:05.665Z,38.73
2019-01-31T03:48:15.084Z,38.70
2019-01-31T03:50:59.484Z,40.87
2019-01-31T03:54:05.952Z,39.63
2019-01-31T03:57:08.027Z,40.57
2019-01-31T03:59:55.437Z,40.37
2019-01-31T04:02:57.031Z,40.63
2019-01-31T04:05:53.467Z,38.27
2019-01-31T04:08:22.312Z,39.03
2019-01-31T04:10:51.171Z,39.73
2019-01-31T04:13:20.041Z,40.43
2019-01-31T04:15:48.900Z,40.57
2019-01-31T04:18:17.769Z,42.03
2019-01-31T04:20:46.641Z,40.83
2019-01-31T04:23:15.517Z,53.52
2019-01-31T04:25:44.396Z,43.03
2019-01-31T04:28:13.282Z,41.13
2019-01-31T04:30:42.145Z,38.90
2019-01-31T04:33:11.024Z,39.70
2019-01-31T04:35:39.915Z,39.67
2019-01-31T04:38:08.807Z,38.03
2019-01-31T04:40:37.718Z,37.43
2019-01-31T04:43:06.611Z,40.17
2019-01-31T04:45:35.496Z,40.57
2019-01-31T04:48:04.371Z,39.00
2019-01-31T04:50:33.286Z,40.77
2019-01-31T04:53:02.174Z,39.37
2019-01-31T04:55:31.035Z,37.70
2019-01-31T04:57:59.924Z,39.50
2019-01-31T05:00:28.805Z,38.13
2019-01-31T05:02:57.652Z,39.07
2019-01-31T05:05:26.525Z,39.23
2019-01-31T05:07:55.411Z,40.93
2019-01-31T05:10:24.274Z,38.77
2019-01-31T05:12:53.214Z,38.50
2019-01-31T05:15:22.067Z,52.97
2019-01-31T05:17:50.939Z,43.20
2019-01-31T05:20:19.823Z,41.53
2019-01-31T05:22:48.669Z,40.37
2019-01-31T05:25:17.555Z,41.80
2019-01-31T05:27:46.660Z,39.53
2019-01-31T05:30:16.015Z,40.57
2019-01-31T05:32:44.919Z,39.50
2019-01-31T05:35:13.824Z,51.03
2019-01-31T05:37:42.718Z,51.10
2019-01-31T05:40:13.355Z,41.70
2019-01-31T05:42:42.246Z,38.87
2019-01-31T05:45:12.937Z,38.93
2019-01-31T05:47:41.794Z,37.57
2019-01-31T05:50:13.097Z,38.63
2019-01-31T05:52:42.005Z,38.83
2019-01-31T05:55:10.913Z,51.03
2019-01-31T05:57:39.805Z,51.08
2019-01-31T06:00:14.493Z,40.37
2019-01-31T06:02:43.391Z,38.77
2019-01-31T06:05:12.277Z,37.93
2019-01-31T06:07:41.169Z,36.40
2019-01-31T06:10:10.317Z,37.77
2019-01-31T06:12:39.159Z,35.93
2019-01-31T06:15:10.925Z,37.63
2019-01-31T06:17:39.816Z,37.40
2019-01-31T06:20:10.218Z,38.77
2019-01-31T06:22:39.113Z,39.00
2019-01-31T06:25:08.003Z,39.80
2019-01-31T06:27:36.894Z,40.73
2019-01-31T06:30:06.424Z,40.33
2019-01-31T06:32:35.290Z,40.00
2019-01-31T06:35:04.718Z,40.33
2019-01-31T06:37:33.602Z,53.65
2019-01-31T06:40:02.482Z,42.27
2019-01-31T06:42:31.428Z,41.70
2019-01-31T06:45:00.314Z,55.43
2019-01-31T06:47:29.165Z,43.77
2019-01-31T06:49:58.033Z,40.47
2019-01-31T06:52:26.929Z,38.93
2019-01-31T06:54:55.826Z,41.13
2019-01-31T06:57:24.685Z,40.63
2019-01-31T06:59:53.644Z,40.60
2019-01-31T07:02:22.499Z,40.40
2019-01-31T07:04:51.404Z,39.03
2019-01-31T07:07:20.287Z,38.20
2019-01-31T07:09:49.190Z,39.70
2019-01-31T07:12:18.083Z,40.17
2019-01-31T07:14:46.944Z,40.57
2019-01-31T07:17:18.330Z,39.07
2019-01-31T07:19:44.746Z,52.67
2019-01-31T07:22:13.628Z,41.60
2019-01-31T07:24:42.519Z,41.90
2019-01-31T07:27:11.406Z,41.27
2019-01-31T07:29:40.276Z,38.90
2019-01-31T07:32:09.211Z,55.98
2019-01-31T07:34:38.079Z,44.07
2019-01-31T07:37:07.001Z,41.63
2019-01-31T07:39:35.939Z,42.60
2019-01-31T07:42:04.829Z,43.60
2019-01-31T07:44:33.724Z,41.70
2019-01-31T07:47:02.572Z,43.20
2019-01-31T07:49:31.454Z,41.40
2019-01-31T07:52:00.323Z,40.30
2019-01-31T07:54:29.219Z,38.97
2019-01-31T07:56:58.088Z,40.60
2019-01-31T07:59:26.967Z,42.70
2019-01-31T08:01:55.891Z,39.93
2019-01-31T08:04:24.771Z,40.17
2019-01-31T08:06:53.674Z,39.23
2019-01-31T08:09:22.541Z,55.20
2019-01-31T08:11:55.086Z,42.33
2019-01-31T08:14:21.780Z,42.20
2019-01-31T08:16:50.665Z,41.37
2019-01-31T08:19:19.551Z,42.07
2019-01-31T08:21:48.457Z,42.70
2019-01-31T08:24:17.343Z,40.87
2019-01-31T08:26:46.203Z,42.93
2019-01-31T08:29:15.093Z,43.60
2019-01-31T08:31:44.007Z,41.03
2019-01-31T08:34:12.884Z,41.23
2019-01-31T08:36:41.908Z,40.53
2019-01-31T08:39:10.694Z,41.50
2019-01-31T08:41:40.620Z,41.67
2019-01-31T08:44:09.484Z,41.87
2019-01-31T08:46:38.341Z,41.17
2019-01-31T08:49:07.442Z,41.50
2019-01-31T08:51:36.211Z,40.53
2019-01-31T08:54:05.267Z,39.60
2019-01-31T08:56:34.176Z,38.63
2019-01-31T08:59:03.077Z,39.60
2019-01-31T09:01:31.983Z,40.97
2019-01-31T09:04:00.885Z,39.30
2019-01-31T09:06:29.762Z,38.77
2019-01-31T09:08:58.618Z,39.33
2019-01-31T09:11:27.486Z,39.63
2019-01-31T09:13:56.371Z,38.20
2019-01-31T09:16:25.229Z,39.57
2019-01-31T09:18:54.105Z,37.17
2019-01-31T09:21:35.124Z,36.77
2019-01-31T09:24:26.568Z,35.23
2019-01-31T09:27:34.274Z,48.45
2019-01-31T09:30:39.399Z,39.40
2019-01-31T09:33:52.004Z,37.07
2019-01-31T09:37:02.791Z,35.73
2019-01-31T09:40:09.637Z,47.08
2019-01-31T09:43:10.012Z,38.87
2019-01-31T09:46:26.458Z,34.53
2019-01-31T09:49:39.476Z,33.50
2019-01-31T09:52:49.784Z,34.23
2019-01-31T09:55:43.562Z,36.17
2019-01-31T09:58:47.372Z,49.42
2019-01-31T10:01:56.578Z,39.33
2019-01-31T10:04:49.969Z,36.83
2019-01-31T10:07:50.870Z,40.30
2019-01-31T10:11:00.884Z,36.43
2019-01-31T10:13:58.538Z,36.00
2019-01-31T10:16:36.216Z,35.90
2019-01-31T10:19:42.901Z,35.37
2019-01-31T10:22:36.778Z,36.50
2019-01-31T10:25:43.447Z,45.63
2019-01-31T10:28:54.348Z,38.60
2019-01-31T10:31:46.783Z,34.83
2019-01-31T10:34:51.436Z,47.78
2019-01-31T10:37:37.688Z,48.75
2019-01-31T10:40:38.670Z,39.37
2019-01-31T10:43:42.375Z,47.23
2019-01-31T10:46:26.396Z,38.00
2019-01-31T10:49:37.613Z,36.37
2019-01-31T10:52:44.487Z,33.93
2019-01-31T10:55:49.309Z,33.57
2019-01-31T10:58:42.877Z,34.23
2019-01-31T11:01:53.461Z,31.73
2019-01-31T11:04:47.955Z,32.20
2019-01-31T11:07:42.415Z,31.33
2019-01-31T11:10:39.222Z,30.73
2019-01-31T11:13:46.629Z,30.90
2019-01-31T11:16:29.718Z,30.50
2019-01-31T11:19:52.364Z,30.43
2019-01-31T11:23:08.020Z,28.87
2019-01-31T11:26:09.909Z,31.17
2019-01-31T11:29:09.656Z,30.83
2019-01-31T11:32:47.698Z,32.53
2019-01-31T11:35:58.259Z,29.70
2019-01-31T11:39:21.658Z,31.50
2019-01-31T11:42:26.292Z,33.33
2019-01-31T11:45:31.102Z,33.53
2019-01-31T11:48:28.208Z,32.20
2019-01-31T11:51:48.480Z,33.97
2019-01-31T11:54:26.828Z,35.00
2019-01-31T11:57:32.611Z,33.33
2019-01-31T12:00:01.536Z,44.53
2019-01-31T12:02:30.394Z,34.83
2019-01-31T12:04:59.273Z,34.27
2019-01-31T12:07:28.144Z,33.40
2019-01-31T12:09:56.990Z,33.50
2019-01-31T12:12:25.892Z,34.23
2019-01-31T12:14:54.764Z,33.60
2019-01-31T12:17:23.667Z,32.13
2019-01-31T12:19:52.579Z,41.98
2019-01-31T12:22:21.445Z,34.90
2019-01-31T12:24:50.297Z,31.67
2019-01-31T12:27:19.193Z,34.93
2019-01-31T12:29:48.083Z,31.57
2019-01-31T12:32:16.943Z,32.27
2019-01-31T12:34:45.860Z,30.80
2019-01-31T12:37:14.660Z,33.43
2019-01-31T12:39:43.540Z,34.67
2019-01-31T12:42:12.387Z,34.97
2019-01-31T12:44:41.285Z,34.63
2019-01-31T12:47:10.163Z,33.73
2019-01-31T12:49:39.037Z,31.57
2019-01-31T12:52:07.917Z,32.27
2019-01-31T12:54:36.841Z,32.40
2019-01-31T12:57:05.812Z,33.13
2019-01-31T12:59:34.691Z,33.27
2019-01-31T13:02:03.602Z,30.90
2019-01-31T13:04:33.410Z,30.83
2019-01-31T19:06:03.396Z,24.70
2019-01-31T19:08:32.407Z,25.63
2019-01-31T19:11:01.551Z,24.47
2019-01-31T19:13:30.694Z,25.33
2019-01-31T19:16:05.450Z,26.17
2019-01-31T19:18:28.958Z,25.87
2019-01-31T19:20:58.114Z,25.53
2019-01-31T19:23:27.275Z,24.27
2019-01-31T19:25:56.391Z,25.87
2019-01-31T19:28:25.444Z,25.97
2019-01-31T19:30:54.565Z,26.53
2019-01-31T19:33:23.706Z,26.27
2019-01-31T19:35:52.775Z,26.03
2019-01-31T19:38:24.123Z,27.20
2019-01-31T19:40:53.248Z,26.80
2019-01-31T19:43:22.359Z,26.50
2019-01-31T19:45:52.044Z,26.67
2019-01-31T19:48:21.128Z,26.53
2019-01-31T19:50:50.210Z,28.10
2019-01-31T19:53:19.357Z,27.93
2019-01-31T19:55:51.291Z,28.10
2019-01-31T19:58:20.360Z,26.43
2019-01-31T20:00:49.423Z,27.33
2019-01-31T20:03:18.435Z,29.00
2019-01-31T20:05:47.502Z,28.03
2019-01-31T20:08:22.069Z,29.10
2019-01-31T20:10:51.221Z,28.53
2019-01-31T20:13:20.301Z,28.50
2019-01-31T20:15:49.322Z,29.23
2019-01-31T20:18:18.441Z,29.77
2019-01-31T20:20:47.497Z,30.57
2019-01-31T20:23:19.323Z,30.17
2019-01-31T20:25:48.330Z,30.20
2019-01-31T20:28:17.337Z,30.23
2019-01-31T20:30:46.353Z,30.23
2019-01-31T20:33:15.437Z,30.50
2019-01-31T20:35:44.562Z,30.77
2019-01-31T20:38:13.618Z,30.30
2019-01-31T20:40:43.262Z,29.07
2019-01-31T20:43:12.383Z,29.70
2019-01-31T20:45:41.593Z,40.58
2019-01-31T20:48:10.623Z,32.93
2019-01-31T20:50:41.186Z,29.80
2019-01-31T20:53:10.394Z,28.77
2019-01-31T20:55:39.598Z,28.27
2019-01-31T20:58:08.853Z,29.13
2019-01-31T21:00:40.275Z,28.70
2019-01-31T21:03:09.512Z,29.03
2019-01-31T21:05:42.051Z,28.27
2019-01-31T21:08:12.200Z,28.83
2019-01-31T21:10:44.151Z,27.53
2019-01-31T21:13:13.335Z,27.27
2019-01-31T21:15:42.549Z,28.37
2019-01-31T21:18:11.509Z,30.47
2019-01-31T21:20:40.677Z,30.00
2019-01-31T21:23:10.108Z,40.30
2019-01-31T21:25:39.209Z,32.90
2019-01-31T21:28:08.308Z,31.10
2019-01-31T21:30:41.482Z,29.63
2019-01-31T21:33:10.562Z,29.90
2019-01-31T21:35:39.740Z,29.40
2019-01-31T21:38:08.883Z,30.67
2019-01-31T21:40:40.711Z,31.23
2019-01-31T21:43:09.900Z,30.60
2019-01-31T21:45:39.018Z,31.87
2019-01-31T21:48:09.450Z,29.97
2019-01-31T21:50:38.529Z,30.13
2019-01-31T21:53:07.602Z,30.93
2019-01-31T21:55:36.763Z,31.17
2019-01-31T21:58:06.290Z,30.90
2019-01-31T22:00:35.413Z,30.10
2019-01-31T22:03:04.652Z,29.93
2019-01-31T22:05:33.735Z,29.97
2019-01-31T22:08:02.847Z,29.77
2019-01-31T22:10:31.955Z,30.07
2019-01-31T22:13:02.976Z,28.30
2019-01-31T22:15:31.177Z,29.03
2019-01-31T22:18:00.795Z,29.40
2019-01-31T22:20:29.734Z,28.93
2019-01-31T22:22:58.863Z,30.67
2019-01-31T22:25:27.986Z,29.43
2019-01-31T22:27:57.134Z,29.80
2019-01-31T22:30:28.670Z,28.20
2019-01-31T22:32:57.717Z,40.55
2019-01-31T22:35:26.754Z,41.10
2019-01-31T22:37:55.895Z,31.93
2019-01-31T22:40:25.015Z,28.57
2019-01-31T22:42:54.052Z,30.40
2019-01-31T22:45:23.251Z,29.20
2019-01-31T22:47:55.461Z,28.93
2019-01-31T22:50:24.633Z,27.20
2019-01-31T22:52:53.730Z,27.30
2019-01-31T22:55:24.034Z,27.17
2019-01-31T22:57:53.149Z,26.17
2019-01-31T23:00:26.913Z,26.70
2019-01-31T23:02:56.062Z,25.87
2019-01-31T23:05:25.263Z,34.05
2019-01-31T23:07:54.448Z,25.50
2019-01-31T23:10:23.836Z,24.33
2019-01-31T23:12:53.032Z,22.53
2019-01-31T23:15:22.077Z,23.27
2019-01-31T23:17:51.186Z,22.77
2019-01-31T23:20:20.394Z,22.67
2019-01-31T23:22:49.423Z,22.20
2019-01-31T23:25:18.556Z,22.50
2019-01-31T23:27:50.685Z,21.47
2019-01-31T23:30:19.868Z,21.20
2019-01-31T23:32:48.857Z,22.53
2019-01-31T23:35:18.118Z,21.23
2019-01-31T23:37:47.116Z,22.70
2019-01-31T23:40:19.094Z,20.77
2019-01-31T23:42:48.214Z,21.40
2019-01-31T23:45:17.384Z,22.60
2019-01-31T23:47:49.036Z,21.73
2019-01-31T23:50:15.534Z,21.13
2019-01-31T23:52:44.617Z,20.20
2019-01-31T23:55:13.768Z,20.57
2019-01-31T23:57:42.904Z,19.70
